ADDS METAR Data INFO
IDs: Format: Raw Decoded Include TAF

Data at: 0249 UTC 21 Oct 2017

KW75 210235Z AUTO 00000KT 10SM CLR 13/13 A3024 RMK AO1 T01310131
KW75 210215Z AUTO 00000KT 7SM CLR 13/13 A3024 RMK AO1 T01300130
KW75 210155Z AUTO 00000KT 10SM CLR 13/13 A3023 RMK AO1 T01320132
KW75 210135Z AUTO 00000KT 10SM CLR 14/14 A3022 RMK AO1 T01370137
KW75 210115Z AUTO 00000KT 10SM CLR 14/14 A3022 RMK AO1 T01370137
KW75 210055Z AUTO 00000KT 10SM CLR 14/14 A3021 RMK AO1 T01400140
KW75 210035Z AUTO 00000KT 10SM CLR 14/14 A3021 RMK AO1 T01420142
KW75 210015Z AUTO 00000KT 10SM CLR 15/15 A3021 RMK AO1 T01500150
KW75 202355Z AUTO 00000KT 10SM CLR 15/15 A3021 RMK AO1 T01500150 10239 20149
KW75 202335Z AUTO 00000KT 10SM CLR 16/15 A3021 RMK AO1 T01550154
KW75 202315Z AUTO 00000KT 10SM CLR 16/15 A3020 RMK AO1 T01610154
KW75 202255Z AUTO 00000KT 10SM CLR 17/16 A3020 RMK AO1 T01680160
KW75 202235Z AUTO 00000KT 10SM CLR 18/16 A3019 RMK AO1 T01760162
KW75 202215Z AUTO 00000KT 10SM CLR 19/16 A3019 RMK AO1 T01930157
KW75 202155Z AUTO 00000KT 10SM CLR 21/16 A3018 RMK AO1 T02050158
KW75 202135Z AUTO 00000KT 10SM CLR 21/16 A3018 RMK AO1 T02110155
KW75 202115Z AUTO 09003KT 10SM CLR 22/16 A3018 RMK AO1 T02150158
KW75 202055Z AUTO 08003KT 10SM CLR 22/16 A3018 RMK AO1 T02170163
KW75 202035Z AUTO 06003KT 10SM CLR 22/16 A3018 RMK AO1 T02210155
KW75 202015Z AUTO 03003KT 10SM CLR 24/14 A3018 RMK AO1 T02350137
KW75 201955Z AUTO 30003KT 10SM CLR 24/13 A3018 RMK AO1 T02360134
KW75 201935Z AUTO 31003KT 10SM CLR 24/13 A3018 RMK AO1 T02360134
KW75 201915Z AUTO 30003KT 10SM CLR 24/13 A3019 RMK AO1 T02380133
KW75 201855Z AUTO 00000KT 10SM CLR 23/14 A3019 RMK AO1 T02310135
KW75 201835Z AUTO 00000KT 10SM CLR 23/14 A3019 RMK AO1 T02300138
KW75 201815Z AUTO 00000KT 10SM CLR 23/14 A3020 RMK AO1 T02270137
KW75 201755Z AUTO 30003KT 10SM CLR 23/14 A3020 RMK AO1 T02250135 10225 20087
KW75 201735Z AUTO 00000KT 10SM CLR 23/14 A3021 RMK AO1 T02250139
KW75 201715Z AUTO 31003KT 10SM CLR 22/14 A3022 RMK AO1 T02170140
KW75 201655Z AUTO 00000KT 10SM CLR 22/14 A3023 RMK AO1 T02170137
KW75 201635Z AUTO 00000KT 10SM CLR 21/14 A3023 RMK AO1 T02080137
KW75 201615Z AUTO 27003KT 10SM CLR 20/14 A3024 RMK AO1 T02030136
KW75 201555Z AUTO 32003KT 10SM CLR 20/14 A3024 RMK AO1 T02010139
KW75 201535Z AUTO 32005KT 10SM CLR 20/13 A3024 RMK AO1 T01950131
KW75 201515Z AUTO 32005KT 10SM CLR 19/13 A3025 RMK AO1 T01890134
KW75 201455Z AUTO 32003KT 10SM CLR 18/14 A3025 RMK AO1 T01800135
KW75 201435Z AUTO 00000KT 10SM CLR 18/13 A3025 RMK AO1 T01770131
KW75 201415Z AUTO 30003KT 10SM CLR 17/13 A3025 RMK AO1 T01700126
KW75 201335Z AUTO 00000KT 10SM CLR 15/12 A3025 RMK AO1 T01540119
KW75 201315Z AUTO 00000KT 10SM CLR 15/11 A3024 RMK AO1 T01450111
KW75 201255Z AUTO 00000KT 10SM CLR 13/11 A3024 RMK AO1 T01320110
KW75 201235Z AUTO 00000KT 10SM CLR 11/11 A3023 RMK AO1 T01140105
KW75 201215Z AUTO 00000KT 10SM CLR 09/09 A3022 RMK AO1 T00940094
KW75 201155Z AUTO 00000KT 10SM CLR 09/09 A3022 RMK AO1 T00850085 10107 20081
KW75 201135Z AUTO 00000KT 10SM CLR 08/08 A3021 RMK AO1 T00820082
KW75 201115Z AUTO 00000KT 10SM CLR 08/08 A3021 RMK AO1 T00830083
KW75 201055Z AUTO 00000KT 10SM CLR 09/09 A3020 RMK AO1 T00850085
KW75 201035Z AUTO 00000KT 10SM CLR 08/08 A3020 RMK AO1 T00840084
KW75 201015Z AUTO 00000KT 10SM CLR 09/09 A3019 RMK AO1 T00850085
KW75 200955Z AUTO 00000KT 10SM CLR 09/09 A3019 RMK AO1 T00860086
KW75 200935Z AUTO 00000KT 10SM CLR 09/09 A3018 RMK AO1 T00850085
KW75 200915Z AUTO 00000KT 10SM CLR 09/09 A3018 RMK AO1 T00870087
KW75 200855Z AUTO 00000KT 10SM CLR 09/09 A3017 RMK AO1 T00900090
KW75 200835Z AUTO 00000KT 10SM CLR 09/09 A3017 RMK AO1 T00900090
KW75 200815Z AUTO 00000KT 10SM CLR 09/09 A3017 RMK AO1 T00890089
KW75 200755Z AUTO 00000KT 10SM CLR 09/09 A3016 RMK AO1 T00910091
KW75 200735Z AUTO 00000KT 10SM CLR 10/10 A3016 RMK AO1 T00950095
KW75 200715Z AUTO 00000KT 10SM CLR 10/10 A3016 RMK AO1 T00970097
KW75 200655Z AUTO 00000KT 10SM CLR 10/10 A3016 RMK AO1 T00980097
KW75 200635Z AUTO 00000KT 10SM CLR 10/10 A3017 RMK AO1 T01010099
KW75 200615Z AUTO 00000KT 10SM CLR 11/11 A3017 RMK AO1 T01060105
KW75 200555Z AUTO 00000KT 10SM CLR 11/11 A3017 RMK AO1 T01110105 10135 20106
KW75 200535Z AUTO 00000KT 10SM CLR 11/11 A3017 RMK AO1 T01130109
KW75 200515Z AUTO 00000KT 10SM CLR 11/11 A3017 RMK AO1 T01070107
KW75 200455Z AUTO 00000KT 10SM CLR 11/11 A3017 RMK AO1 T01120110 402260077
KW75 200435Z AUTO 00000KT 10SM CLR 12/11 A3017 RMK AO1 T01190113
KW75 200415Z AUTO 21003KT 10SM CLR 12/12 A3017 RMK AO1 T01220115
KW75 200400Z AUTO 00000KT 10SM CLR 12/12 A3017 RMK AO1 T01200116
KW75 200335Z AUTO 22003KT 10SM CLR 13/13 A3018 RMK AO1 T01270125
KW75 200315Z AUTO 21003KT 10SM CLR 13/12 A3018 RMK AO1 T01250124
KW75 200255Z AUTO 21003KT 10SM CLR 12/12 A3018 RMK AO1 T01220122
KW75 200235Z AUTO 21003KT 10SM CLR 12/12 A3018 RMK AO1 T01220122
KW75 200215Z AUTO 21003KT 10SM CLR 13/13 A3018 RMK AO1 T01250125
KW75 200155Z AUTO 00000KT 10SM CLR 13/12 A3018 RMK AO1 T01250123
KW75 200135Z AUTO 00000KT 10SM CLR 12/12 A3018 RMK AO1 T01230122
KW75 200115Z AUTO 00000KT 10SM CLR 13/13 A3018 RMK AO1 T01260125
KW75 200055Z AUTO 21003KT 10SM CLR 13/13 A3017 RMK AO1 T01280126
KW75 200035Z AUTO 00000KT 10SM CLR 13/13 A3017 RMK AO1 T01300128
KW75 200015Z AUTO 00000KT 10SM CLR 13/13 A3017 RMK AO1 T01320130
KW75 192355Z AUTO 00000KT 10SM CLR 14/13 A3017 RMK AO1 T01360132 10226 20136
KW75 192335Z AUTO 00000KT 10SM CLR 14/14 A3017 RMK AO1 T01430135
KW75 192315Z AUTO 00000KT 10SM CLR 15/14 A3017 RMK AO1 T01500135
KW75 192255Z AUTO 00000KT 10SM CLR 16/14 A3017 RMK AO1 T01560137
KW75 192235Z AUTO 00000KT 10SM CLR 17/14 A3016 RMK AO1 T01670135
KW75 192215Z AUTO 00000KT 10SM CLR 18/14 A3016 RMK AO1 T01790140
KW75 192155Z AUTO 00000KT 10SM CLR 20/13 A3017 RMK AO1 T02030130
KW75 192135Z AUTO 00000KT 10SM CLR 21/12 A3017 RMK AO1 T02140124
KW75 192115Z AUTO 21004KT 10SM CLR 22/12 A3017 RMK AO1 T02200122
KW75 192055Z AUTO 00000KT 10SM CLR 22/12 A3018 RMK AO1 T02200120
KW75 192035Z AUTO 20004KT 10SM CLR 22/12 A3018 RMK AO1 T02220118
KW75 192015Z AUTO 21004KT 10SM CLR 23/12 A3019 RMK AO1 T02250119
KW75 191955Z AUTO 24004KT 10SM CLR 23/12 A3019 RMK AO1 T02250118
KW75 191935Z AUTO 25004KT 10SM CLR 23/11 A3019 RMK AO1 T02250111
KW75 191915Z AUTO 23003KT 10SM CLR 22/11 A3020 RMK AO1 T02210112
KW75 191855Z AUTO 20006KT 10SM CLR 22/11 A3020 RMK AO1 T02200108
KW75 191835Z AUTO 22004KT 10SM CLR 22/10 A3021 RMK AO1 T02180103
KW75 191815Z AUTO 26005KT 10SM CLR 22/11 A3022 RMK AO1 T02160105
KW75 191755Z AUTO 25008KT 220V280 10SM CLR 22/11 A3023 RMK AO1 T02170111 10217 20091
KW75 191735Z AUTO 23004KT 10SM CLR 21/11 A3024 RMK AO1 T02110110
KW75 191715Z AUTO 19003KT 10SM CLR 21/11 A3024 RMK AO1 T02070106
KW75 191655Z AUTO 19005KT 10SM CLR 20/10 A3026 RMK AO1 T02040101
KW75 191635Z AUTO 20008KT 10SM CLR 20/10 A3027 RMK AO1 T02030101
KW75 191615Z AUTO 23005KT 10SM CLR 20/11 A3028 RMK AO1 T02010109
KW75 191555Z AUTO 21004KT 10SM CLR 19/10 A3028 RMK AO1 T01920104
KW75 191535Z AUTO 25004KT 10SM CLR 19/12 A3029 RMK AO1 T01920115
KW75 191515Z AUTO 20005KT 10SM CLR 19/11 A3029 RMK AO1 T01870113
KW75 191455Z AUTO 24003KT 10SM CLR 18/11 A3030 RMK AO1 T01810110